Time;durP1;ratioP1;P1;durP2;ratioP2;P2;SDS_P1;SDS_P2;PMS_P1;PMS_P2;Temp;Humidity;BMP_temperature;BMP_pressure;BME280_temperature;BME280_humidity;BME280_pressure;Samples;Min_cycle;Max_cycle;Signal;HPM_P1;HPM_P2
2023/10/06 00:02:14;;;;;;;0.20;0.20;;;;;;;14.59;59.99;100559.34;5329126;26;20039;-92
2023/10/06 00:04:41;;;;;;;0.10;0.10;;;;;;;14.55;59.98;100560.38;5311158;26;20052;-92
2023/10/06 00:07:07;;;;;;;0.98;0.85;;;;;;;14.45;59.98;100566.88;5310653;26;20105;-92
2023/10/06 00:09:36;;;;;;;1.25;1.17;;;;;;;14.46;59.98;100568.56;5310677;26;20028;-92
2023/10/06 00:12:03;;;;;;;0.03;0.03;;;;;;;14.34;59.98;100568.94;5310734;26;20063;-93
2023/10/06 00:14:48;;;;;;;0.20;0.20;;;;;;;14.18;59.96;100568.59;5311473;26;20060;-93
2023/10/06 00:17:17;;;;;;;0.10;0.10;;;;;;;14.37;59.97;100569.69;5318126;26;20059;-93
2023/10/06 00:19:48;;;;;;;0.13;0.10;;;;;;;14.26;59.97;100564.00;5328507;26;20064;-93
2023/10/06 00:24:42;;;;;;;0.10;0.10;;;;;;;14.09;59.97;100569.78;5329380;26;20071;-92
2023/10/06 00:27:11;;;;;;;0.00;0.00;;;;;;;13.91;59.95;100574.75;5310225;26;20354;-92
2023/10/06 00:29:44;;;;;;;0.63;0.63;;;;;;;13.76;59.94;100576.97;5329006;26;20067;-93
2023/10/06 00:32:21;;;;;;;1.85;1.00;;;;;;;13.67;59.94;100579.87;5329189;26;20145;-93
2023/10/06 00:34:51;;;;;;;0.25;0.25;;;;;;;13.90;59.95;100578.28;5313538;26;20056;-92
2023/10/06 00:37:16;;;;;;;0.10;0.10;;;;;;;13.77;59.94;100581.31;5328384;26;20063;-92
2023/10/06 00:39:43;;;;;;;0.73;0.37;;;;;;;13.69;59.94;100585.91;5328195;26;20155;-92
2023/10/06 00:42:09;;;;;;;0.17;0.17;;;;;;;13.69;59.94;100582.44;5328453;26;20433;-92
2023/10/06 00:44:35;;;;;;;0.65;0.28;;;;;;;13.69;59.93;100588.53;5328452;26;20087;-94
2023/10/06 00:47:05;;;;;;;0.17;0.10;;;;;;;13.69;59.94;100592.91;5310609;26;20115;-90
2023/10/06 00:49:32;;;;;;;4.12;0.60;;;;;;;13.62;59.93;100584.41;5311672;26;20082;-92
2023/10/06 00:51:59;;;;;;;1.08;0.65;;;;;;;13.78;59.94;100579.56;5310198;26;20068;-93
2023/10/06 00:54:25;;;;;;;0.52;0.52;;;;;;;13.51;59.93;100589.97;5327990;26;20066;-92
2023/10/06 00:56:52;;;;;;;0.00;0.00;;;;;;;13.63;59.93;100582.63;5310073;26;20052;-93
2023/10/06 00:59:18;;;;;;;0.08;0.08;;;;;;;13.50;59.93;100580.41;5328310;26;20068;-92
2023/10/06 01:01:43;;;;;;;0.20;0.20;;;;;;;13.52;59.93;100583.84;5328529;26;20080;-92
2023/10/06 01:04:11;;;;;;;0.17;0.17;;;;;;;13.58;59.94;100580.16;5328552;26;20059;-93
2023/10/06 01:06:42;;;;;;;0.00;0.00;;;;;;;13.61;59.93;100576.59;5310413;26;20051;-92
2023/10/06 01:11:41;;;;;;;;;;;;;;;13.64;59.93;100573.88;5329966;26;20063;-94
2023/10/06 01:14:07;;;;;;;0.00;0.00;;;;;;;13.79;59.93;100570.78;5347367;26;20033;-94
2023/10/06 01:16:35;;;;;;;0.00;0.00;;;;;;;13.80;59.94;100565.50;5328984;26;20119;-94
2023/10/06 01:21:53;;;;;;;2.62;1.65;;;;;;;13.85;59.94;100570.59;5335471;26;20070;-94
2023/10/06 01:24:25;;;;;;;0.00;0.00;;;;;;;13.91;59.95;100572.16;5310638;26;20062;-93
2023/10/06 01:27:07;;;;;;;0.00;0.00;;;;;;;13.86;59.94;100569.69;5311911;26;20047;-94
2023/10/06 01:29:33;;;;;;;4.57;0.68;;;;;;;14.02;59.95;100570.03;5328859;26;20060;-92
2023/10/06 01:32:03;;;;;;;0.20;0.20;;;;;;;13.85;59.94;100575.81;5310052;26;20423;-92
2023/10/06 01:34:34;;;;;;;0.05;0.05;;;;;;;14.04;59.95;100579.56;5328853;26;20111;-93
2023/10/06 01:37:03;;;;;;;1.25;0.37;;;;;;;13.99;59.95;100580.63;5311703;26;20450;-93
2023/10/06 01:39:31;;;;;;;0.20;0.20;;;;;;;14.06;59.96;100582.13;5329048;26;20116;-93
2023/10/06 01:41:57;;;;;;;1.85;1.08;;;;;;;13.90;59.95;100586.13;5311564;26;20064;-94
2023/10/06 01:44:22;;;;;;;0.00;0.00;;;;;;;13.93;59.94;100588.66;5310580;26;20104;-93
2023/10/06 01:46:54;;;;;;;0.05;0.05;;;;;;;13.51;59.93;100596.97;5310278;26;20370;-93
2023/10/06 01:49:21;;;;;;;0.75;0.47;;;;;;;13.29;59.92;100604.59;5312781;26;20111;-94
2023/10/06 01:51:53;;;;;;;0.13;0.13;;;;;;;13.39;59.92;100592.09;5329473;26;20064;-94
2023/10/06 01:54:19;;;;;;;0.37;0.35;;;;;;;13.38;59.92;100593.84;5312691;26;20031;-94
2023/10/06 01:56:46;;;;;;;0.90;0.57;;;;;;;13.28;59.91;100607.25;5329928;26;20025;-95
2023/10/06 01:59:12;;;;;;;0.00;0.00;;;;;;;13.24;59.91;100606.47;5330257;26;20056;-94
2023/10/06 02:01:39;;;;;;;0.28;0.20;;;;;;;13.21;59.91;100612.63;5330075;26;20117;-93
2023/10/06 02:04:10;;;;;;;0.00;0.00;;;;;;;13.24;59.91;100606.47;5330573;26;20415;-94
2023/10/06 02:06:41;;;;;;;0.00;0.00;;;;;;;12.91;59.90;100608.25;5313001;26;20055;-93
2023/10/06 02:09:14;;;;;;;0.10;0.10;;;;;;;13.03;59.91;100614.91;5330221;26;20086;-94
2023/10/06 02:11:41;;;;;;;3.40;1.35;;;;;;;13.14;59.91;100612.84;5330940;26;20127;-94
2023/10/06 02:14:09;;;;;;;1.55;0.65;;;;;;;13.40;59.92;100619.94;5329771;26;20051;-94
2023/10/06 02:16:36;;;;;;;0.03;0.03;;;;;;;13.52;59.93;100617.84;5312707;26;20044;-93
2023/10/06 02:19:02;;;;;;;0.17;0.17;;;;;;;13.46;59.93;100617.16;5311883;26;20056;-94
2023/10/06 02:21:29;;;;;;;0.03;0.03;;;;;;;13.36;59.92;100626.19;5312845;26;20681;-94
2023/10/06 02:24:03;;;;;;;0.00;0.00;;;;;;;13.39;59.92;100620.84;5313818;26;20715;-93
2023/10/06 02:26:29;;;;;;;1.87;0.65;;;;;;;13.26;59.92;100612.53;5314543;26;20052;-92
2023/10/06 02:28:55;;;;;;;0.20;0.20;;;;;;;13.27;59.92;100614.25;5311743;26;20103;-93
2023/10/06 02:31:21;;;;;;;0.47;0.47;;;;;;;13.36;59.92;100615.72;5312210;26;20090;-93
2023/10/06 02:33:51;;;;;;;1.27;1.17;;;;;;;13.22;59.91;100613.50;5311775;26;20389;-92
2023/10/06 02:36:21;;;;;;;0.20;0.20;;;;;;;13.29;59.91;100611.59;5312233;26;20075;-94
2023/10/06 02:38:48;;;;;;;0.15;0.15;;;;;;;13.38;59.92;100617.38;5332204;26;20056;-93
2023/10/06 02:41:18;;;;;;;2.37;0.47;;;;;;;13.27;59.92;100616.87;5329976;26;20673;-93
2023/10/06 02:43:45;;;;;;;0.00;0.00;;;;;;;13.23;59.91;100623.06;5330471;26;20123;-94
2023/10/06 02:46:11;;;;;;;0.00;0.00;;;;;;;13.27;59.92;100631.69;5329894;26;20079;-95
2023/10/06 02:48:37;;;;;;;0.43;0.37;;;;;;;13.15;59.90;100630.25;5312888;26;20306;-96
2023/10/06 02:51:06;;;;;;;0.10;0.10;;;;;;;13.07;59.90;100627.84;5312959;26;20060;-94
2023/10/06 02:53:35;;;;;;;0.00;0.00;;;;;;;13.29;59.91;100619.44;5331372;26;20131;-94
2023/10/06 02:56:08;;;;;;;0.20;0.20;;;;;;;13.46;59.93;100619.75;5313083;26;20199;-94
2023/10/06 02:58:40;;;;;;;0.00;0.00;;;;;;;13.75;59.94;100617.13;5332166;26;20055;-96
2023/10/06 03:01:11;;;;;;;0.57;0.57;;;;;;;13.50;59.93;100619.66;5318301;26;20060;-96
2023/10/06 03:03:40;;;;;;;0.00;0.00;;;;;;;13.55;59.93;100629.97;5337143;26;20030;-96
2023/10/06 03:06:07;;;;;;;1.35;0.68;;;;;;;13.46;59.92;100630.22;5315616;26;20998;-96
2023/10/06 03:08:35;;;;;;;0.00;0.00;;;;;;;13.55;59.92;100626.50;5315652;26;20052;-96
2023/10/06 03:11:01;;;;;;;0.68;0.60;;;;;;;13.44;59.92;100629.41;5352145;26;20760;-96
2023/10/06 03:13:33;;;;;;;0.32;0.32;;;;;;;13.48;59.92;100620.56;5314111;26;20067;-95
2023/10/06 03:15:59;;;;;;;0.00;0.00;;;;;;;13.55;59.93;100626.50;5350602;26;20415;-94
2023/10/06 03:18:25;;;;;;;0.20;0.20;;;;;;;13.57;59.94;100622.94;5331192;26;20060;-96
2023/10/06 03:20:53;;;;;;;0.43;0.43;;;;;;;13.42;59.92;100629.47;5313730;26;20063;-95
2023/10/06 03:23:36;;;;;;;2.45;1.00;;;;;;;13.31;59.91;100630.69;5314135;26;20052;-95
2023/10/06 03:26:03;;;;;;;0.43;0.43;;;;;;;13.25;59.91;100628.22;5338070;26;20034;-93
2023/10/06 03:28:42;;;;;;;0.52;0.52;;;;;;;13.35;59.92;100619.25;5336792;26;20132;-95
2023/10/06 03:33:46;;;;;;;0.00;0.00;;;;;;;13.29;59.91;100627.28;5336685;26;20053;-96
2023/10/06 03:36:15;;;;;;;0.22;0.22;;;;;;;13.35;59.92;100620.09;5331156;26;20047;-95
2023/10/06 03:38:44;;;;;;;0.03;0.03;;;;;;;13.26;59.91;100622.12;5332452;26;20025;-96
2023/10/06 03:41:18;;;;;;;0.80;0.32;;;;;;;13.24;59.91;100629.12;5313585;26;20028;-94
2023/10/06 03:43:51;;;;;;;1.98;1.12;;;;;;;13.17;59.91;100631.03;5316399;26;20035;-94
2023/10/06 03:46:18;;;;;;;0.00;0.00;;;;;;;13.19;59.90;100626.66;5314789;26;20100;-94
2023/10/06 03:48:46;;;;;;;0.08;0.08;;;;;;;13.10;59.90;100633.00;5331282;26;20131;-95
2023/10/06 03:51:11;;;;;;;1.62;1.45;;;;;;;13.40;59.92;100638.25;5331161;26;20028;-95
2023/10/06 03:53:36;;;;;;;0.10;0.10;;;;;;;13.36;59.92;100637.50;5312506;26;20138;-94
2023/10/06 03:56:02;;;;;;;0.25;0.25;;;;;;;13.19;59.92;100634.50;5311921;26;20056;-96
2023/10/06 03:58:28;;;;;;;0.03;0.03;;;;;;;13.53;59.92;100639.63;5312118;26;20064;-96
2023/10/06 04:00:54;;;;;;;0.03;0.03;;;;;;;13.65;59.94;100641.00;5312033;26;20094;-92
2023/10/06 04:03:19;;;;;;;0.30;0.30;;;;;;;13.74;59.94;100638.97;5330160;26;20108;-94
2023/10/06 04:05:45;;;;;;;0.00;0.00;;;;;;;13.76;59.94;100634.56;5311677;26;20432;-94
2023/10/06 04:08:19;;;;;;;0.00;0.00;;;;;;;13.75;59.94;100635.47;5331169;26;20113;-94
2023/10/06 04:10:46;;;;;;;10.32;0.40;;;;;;;13.69;59.94;100640.84;5332546;26;20124;-95
2023/10/06 04:13:12;;;;;;;0.00;0.00;;;;;;;13.76;59.94;100631.94;5312940;26;20681;-96
2023/10/06 04:15:38;;;;;;;2.25;1.35;;;;;;;13.55;59.92;100632.59;5312420;26;20044;-95
2023/10/06 04:18:10;;;;;;;0.00;0.00;;;;;;;13.50;59.93;100653.66;5329918;26;20064;-95
2023/10/06 04:20:42;;;;;;;0.85;0.70;;;;;;;13.58;59.93;100644.72;5349801;26;20109;-95
2023/10/06 04:23:14;;;;;;;0.00;0.00;;;;;;;13.57;59.92;100636.00;5329171;26;20072;-95
2023/10/06 04:25:40;;;;;;;0.00;0.00;;;;;;;13.49;59.93;100644.09;5348725;26;20103;-95
2023/10/06 04:28:15;;;;;;;4.80;0.52;;;;;;;13.45;59.93;100638.97;5350316;26;20056;-93
2023/10/06 04:30:42;;;;;;;0.10;0.10;;;;;;;13.63;59.93;100646.28;5367868;26;20074;-95
2023/10/06 04:33:10;;;;;;;0.10;0.10;;;;;;;13.58;59.93;100644.72;5329439;26;20115;-94
2023/10/06 04:35:39;;;;;;;1.55;0.62;;;;;;;13.42;59.92;100652.16;5312563;26;20749;-94
2023/10/06 04:38:05;;;;;;;0.03;0.03;;;;;;;13.41;59.91;100650.44;5330725;26;20064;-93
2023/10/06 04:40:32;;;;;;;0.00;0.00;;;;;;;13.38;59.92;100650.53;5312020;26;20070;-93
2023/10/06 04:42:58;;;;;;;0.65;0.55;;;;;;;13.38;59.92;100654.00;5311105;26;20056;-93
2023/10/06 04:45:24;;;;;;;0.13;0.13;;;;;;;13.41;59.92;100651.28;5311171;26;20306;-95
2023/10/06 04:47:49;;;;;;;2.20;0.93;;;;;;;13.54;59.92;100651.81;5329355;26;20070;-93
2023/10/06 04:50:16;;;;;;;0.00;0.00;;;;;;;13.58;59.94;100652.56;5311413;26;20103;-93
2023/10/06 04:52:44;;;;;;;1.98;1.20;;;;;;;13.58;59.93;100648.19;5311563;26;20420;-92
2023/10/06 04:55:11;;;;;;;0.90;0.75;;;;;;;13.77;59.94;100646.72;5311636;26;20048;-92
2023/10/06 04:57:37;;;;;;;0.10;0.10;;;;;;;13.64;59.94;100650.59;5311992;26;20064;-91
2023/10/06 05:00:13;;;;;;;0.00;0.00;;;;;;;13.62;59.93;100660.25;5310586;26;20086;-93
2023/10/06 05:02:38;;;;;;;0.00;0.00;;;;;;;13.68;59.94;100659.22;5348812;26;20056;-91
2023/10/06 05:05:05;;;;;;;3.28;1.83;;;;;;;13.75;59.94;100655.53;5310550;26;20461;-93
2023/10/06 05:07:31;;;;;;;0.20;0.20;;;;;;;13.73;59.94;100659.97;5310854;26;20108;-93
2023/10/06 05:09:56;;;;;;;0.22;0.22;;;;;;;13.86;59.94;100668.28;5310343;26;20063;-92
2023/10/06 05:12:25;;;;;;;1.08;1.08;;;;;;;13.72;59.94;100674.81;5310278;26;20071;-94
2023/10/06 05:14:50;;;;;;;1.20;0.52;;;;;;;13.77;59.94;100669.44;5329365;26;20153;-92
2023/10/06 05:17:16;;;;;;;0.65;0.45;;;;;;;13.78;59.94;100672.00;5310499;26;20118;-92
2023/10/06 05:19:45;;;;;;;0.17;0.17;;;;;;;13.80;59.95;100674.56;5310947;26;20079;-93
2023/10/06 05:22:11;;;;;;;0.10;0.10;;;;;;;13.77;59.95;100685.97;5310903;26;20189;-93
2023/10/06 05:24:37;;;;;;;0.47;0.47;;;;;;;13.62;59.93;100690.81;5328613;26;20105;-92
2023/10/06 05:27:05;;;;;;;0.10;0.10;;;;;;;13.67;59.94;100699.38;5329105;26;20056;-92
2023/10/06 05:29:35;;;;;;;0.25;0.25;;;;;;;13.87;59.94;100706.62;5311247;26;20074;-94
2023/10/06 05:32:02;;;;;;;0.32;0.32;;;;;;;13.64;59.94;100710.78;5313052;26;20721;-93
2023/10/06 05:34:29;;;;;;;0.25;0.10;;;;;;;13.86;59.94;100704.91;5310984;26;20114;-92
2023/10/06 05:36:55;;;;;;;0.10;0.10;;;;;;;13.90;59.95;100709.16;5311623;26;20629;-95
2023/10/06 05:39:40;;;;;;;0.75;0.75;;;;;;;13.85;59.95;100708.44;5322415;26;20070;-96
2023/10/06 05:42:08;;;;;;;0.03;0.03;;;;;;;13.85;59.94;100705.81;5375300;26;20068;-96
2023/10/06 05:44:38;;;;;;;0.25;0.25;;;;;;;13.79;59.94;100710.34;5320335;26;20071;-96
2023/10/06 05:47:08;;;;;;;0.75;0.60;;;;;;;13.73;59.94;100713.16;5376902;26;20017;-96
2023/10/06 05:49:45;;;;;;;0.10;0.10;;;;;;;13.82;59.95;100717.25;5339441;26;20164;-96
2023/10/06 05:52:13;;;;;;;0.20;0.20;;;;;;;13.90;59.95;100722.22;5338803;26;20070;-95
2023/10/06 05:54:42;;;;;;;0.00;0.00;;;;;;;14.14;59.96;100718.87;5336630;26;20689;-95
2023/10/06 05:57:26;;;;;;;0.00;0.00;;;;;;;14.06;59.95;100729.59;5355404;26;20101;-96
2023/10/06 06:00:33;;;;;;;0.57;0.57;;;;;;;14.25;59.96;100729.88;5378913;26;20075;-96
2023/10/06 06:03:06;;;;;;;0.00;0.00;;;;;;;14.19;59.97;100732.66;5370768;26;20067;-96
2023/10/06 06:05:33;;;;;;;0.30;0.30;;;;;;;14.24;59.96;100735.16;5332611;26;20050;-94
2023/10/06 06:08:00;;;;;;;0.00;0.00;;;;;;;14.23;59.97;100728.22;5314009;26;20520;-96
2023/10/06 06:10:29;;;;;;;0.17;0.17;;;;;;;14.39;59.97;100738.13;5311860;26;20083;-96
2023/10/06 06:12:55;;;;;;;0.20;0.20;;;;;;;14.28;59.97;100736.78;5312505;26;20420;-96
2023/10/06 06:15:21;;;;;;;0.10;0.10;;;;;;;14.23;59.97;100736.94;5313324;26;20100;-96
2023/10/06 06:17:47;;;;;;;0.10;0.10;;;;;;;14.37;59.97;100729.47;5313173;26;20056;-96
2023/10/06 06:20:14;;;;;;;2.20;0.68;;;;;;;14.61;59.98;100733.09;5331601;26;20074;-95
2023/10/06 06:22:47;;;;;;;0.00;0.00;;;;;;;14.53;59.98;100737.72;5314297;26;20099;-96
2023/10/06 06:25:15;;;;;;;0.90;0.52;;;;;;;14.50;59.98;100735.22;5332471;26;20028;-96
2023/10/06 06:27:43;;;;;;;0.45;0.40;;;;;;;14.51;59.98;100743.94;5331176;26;20060;-95
2023/10/06 06:30:10;;;;;;;3.40;0.55;;;;;;;14.39;59.97;100743.38;5314049;26;20083;-95
2023/10/06 06:32:36;;;;;;;0.85;0.65;;;;;;;14.57;59.98;100739.34;5331363;26;20126;-96
2023/10/06 06:35:01;;;;;;;1.20;1.10;;;;;;;14.52;59.98;100740.41;5319471;26;20048;-96
2023/10/06 06:37:28;;;;;;;1.37;0.75;;;;;;;14.54;59.98;100738.59;5314145;26;20121;-96
2023/10/06 06:39:53;;;;;;;0.10;0.10;;;;;;;14.35;59.98;100748.75;5350112;26;20780;-95
2023/10/06 06:42:20;;;;;;;1.17;0.47;;;;;;;14.44;59.98;100753.75;5332624;26;20416;-96
2023/10/06 06:44:47;;;;;;;0.75;0.75;;;;;;;14.52;59.98;100753.50;5312831;26;20159;-96
2023/10/06 06:47:16;;;;;;;0.00;0.00;;;;;;;14.60;59.99;100761.97;5314813;26;20417;-96
2023/10/06 06:49:43;;;;;;;1.20;1.10;;;;;;;14.59;59.98;100766.34;5331613;26;20060;-95
2023/10/06 06:52:10;;;;;;;0.17;0.17;;;;;;;14.73;59.99;100764.16;5312486;26;20066;-95
2023/10/06 06:54:38;;;;;;;2.12;1.65;;;;;;;14.60;59.99;100762.81;5349434;26;20043;-95
2023/10/06 06:57:04;;;;;;;0.35;0.32;;;;;;;14.55;59.98;100769.97;5313466;26;20065;-94
2023/10/06 06:59:31;;;;;;;0.30;0.22;;;;;;;14.65;59.99;100775.78;5313659;26;20098;-95
2023/10/06 07:01:58;;;;;;;0.40;0.40;;;;;;;14.76;59.99;100783.31;5333141;26;20103;-96
2023/10/06 07:04:26;;;;;;;0.75;0.75;;;;;;;14.62;59.98;100787.22;5330751;26;20135;-96
2023/10/06 07:06:52;;;;;;;0.43;0.30;;;;;;;14.79;60.00;100781.44;5312736;26;20656;-96
2023/10/06 07:09:18;;;;;;;0.17;0.17;;;;;;;14.85;59.99;100789.09;5312351;26;20110;-96
2023/10/06 07:11:44;;;;;;;0.95;0.80;;;;;;;14.82;59.99;100783.09;5311196;26;20107;-94
2023/10/06 07:14:10;;;;;;;0.00;0.00;;;;;;;14.91;60.00;100788.91;5311744;26;20051;-95
2023/10/06 07:16:36;;;;;;;0.00;0.00;;;;;;;14.92;60.00;100788.00;5311671;26;20145;-95
2023/10/06 07:19:01;;;;;;;1.95;1.00;;;;;;;15.10;60.02;100783.88;5329711;26;20064;-94
2023/10/06 07:21:28;;;;;;;1.15;1.02;;;;;;;15.22;60.01;100782.59;5311392;26;20401;-95
2023/10/06 07:23:56;;;;;;;0.00;0.00;;;;;;;15.34;60.03;100785.66;5329986;26;20052;-95
2023/10/06 07:26:22;;;;;;;0.20;0.15;;;;;;;15.51;60.04;100778.94;5312038;26;20071;-94
2023/10/06 07:28:52;;;;;;;0.10;0.10;;;;;;;15.74;60.05;100781.62;5311966;26;20498;-95
2023/10/06 07:31:17;;;;;;;0.10;0.10;;;;;;;15.95;60.06;100787.84;5312771;26;20020;-95
2023/10/06 07:33:52;;;;;;;0.37;0.37;;;;;;;16.05;60.06;100786.59;5311355;26;20065;-96
2023/10/06 07:36:17;;;;;;;1.27;1.00;;;;;;;16.14;60.07;100780.16;5332922;26;20083;-94
2023/10/06 07:38:43;;;;;;;0.80;0.50;;;;;;;16.14;60.07;100788.88;5317192;26;20063;-96
2023/10/06 07:41:16;;;;;;;0.10;0.10;;;;;;;16.23;60.08;100798.16;5330138;26;20109;-95
2023/10/06 07:43:41;;;;;;;0.70;0.68;;;;;;;16.41;60.08;100800.09;5330831;26;20058;-95
2023/10/06 07:46:07;;;;;;;1.23;0.57;;;;;;;16.40;60.08;100800.16;5310704;26;20107;-95
2023/10/06 07:48:36;;;;;;;0.25;0.25;;;;;;;16.32;60.08;100800.44;5311413;26;20031;-94
2023/10/06 07:51:03;;;;;;;0.55;0.17;;;;;;;16.61;60.09;100793.19;5330272;26;20058;-95
2023/10/06 07:53:28;;;;;;;0.05;0.05;;;;;;;16.78;60.11;100790.75;5329651;26;20071;-95
2023/10/06 07:56:06;;;;;;;0.43;0.28;;;;;;;16.73;60.10;100795.34;5311095;26;20094;-94
2023/10/06 07:58:32;;;;;;;0.00;0.00;;;;;;;16.86;60.11;100801.81;5330817;26;20113;-95
2023/10/06 08:00:57;;;;;;;0.93;0.20;;;;;;;16.95;60.11;100797.94;5311620;26;20048;-94
2023/10/06 08:03:25;;;;;;;0.10;0.10;;;;;;;17.05;60.11;100802.78;5312090;26;20091;-95
2023/10/06 08:05:50;;;;;;;0.10;0.10;;;;;;;17.17;60.13;100798.75;5312715;26;20075;-94
2023/10/06 08:08:16;;;;;;;0.00;0.00;;;;;;;17.50;60.14;100797.28;5311905;26;20117;-95
2023/10/06 08:10:41;;;;;;;0.85;0.85;;;;;;;17.44;60.13;100797.56;5310718;26;22693;-95
2023/10/06 08:13:07;;;;;;;1.35;0.47;;;;;;;17.52;60.14;100807.78;5311420;26;20066;-96
2023/10/06 08:15:33;;;;;;;0.25;0.25;;;;;;;17.70;60.15;100806.97;5311903;26;20172;-94
2023/10/06 08:17:58;;;;;;;0.93;0.93;;;;;;;17.93;60.17;100800.66;5311286;26;20060;-96
2023/10/06 08:20:24;;;;;;;0.00;0.00;;;;;;;18.08;60.17;100814.94;5311391;26;20067;-96
2023/10/06 08:22:50;;;;;;;0.00;0.00;;;;;;;18.06;60.17;100808.88;5329698;26;20139;-95
2023/10/06 08:25:16;;;;;;;0.57;0.57;;;;;;;18.12;60.17;100811.22;5311352;26;20134;-96
2023/10/06 08:27:45;;;;;;;0.43;0.43;;;;;;;18.35;60.19;100815.41;5330312;26;20685;-95
2023/10/06 08:30:16;;;;;;;0.22;0.22;;;;;;;18.38;60.19;100808.22;5331192;26;20146;-96
2023/10/06 08:32:45;;;;;;;0.30;0.30;;;;;;;18.46;60.19;100813.16;5348938;26;20079;-95
2023/10/06 08:35:13;;;;;;;5.68;0.88;;;;;;;18.50;60.20;100816.50;5331618;26;20122;-95
2023/10/06 08:37:41;;;;;;;0.15;0.15;;;;;;;18.56;60.20;100817.03;5317855;26;20043;-96
2023/10/06 08:40:08;;;;;;;0.10;0.10;;;;;;;18.76;60.20;100809.97;5333030;26;20059;-96
2023/10/06 08:42:34;;;;;;;0.00;0.00;;;;;;;18.85;60.21;100814.78;5348455;26;20392;-96
2023/10/06 08:45:00;;;;;;;0.57;0.55;;;;;;;18.90;60.21;100813.63;5312074;26;20369;-94
2023/10/06 08:47:26;;;;;;;0.30;0.30;;;;;;;18.99;60.21;100809.69;5331486;26;20076;-96
2023/10/06 08:49:51;;;;;;;0.00;0.00;;;;;;;19.11;60.23;100808.22;5334299;26;20052;-96
2023/10/06 08:52:17;;;;;;;1.02;0.70;;;;;;;19.29;60.23;100808.12;5314882;26;20428;-96
2023/10/06 08:54:43;;;;;;;0.00;0.00;;;;;;;19.45;60.25;100802.09;5333302;26;20066;-96
2023/10/06 08:57:11;;;;;;;0.85;0.85;;;;;;;19.66;60.26;100808.91;5334070;26;20080;-96
2023/10/06 08:59:39;;;;;;;0.10;0.10;;;;;;;19.80;60.27;100798.44;5318307;26;20890;-96
2023/10/06 09:02:05;;;;;;;0.10;0.10;;;;;;;19.70;60.26;100805.19;5337030;26;20017;-96
2023/10/06 09:04:54;;;;;;;2.75;0.73;;;;;;;20.12;60.29;100806.44;5357807;26;20060;-96
2023/10/06 09:07:22;;;;;;;0.30;0.30;;;;;;;20.20;60.28;100798.94;5378615;26;20054;-96
2023/10/06 09:09:49;;;;;;;0.15;0.13;;;;;;;20.39;60.29;100801.44;5338930;26;20060;-96
2023/10/06 09:12:23;;;;;;;0.70;0.70;;;;;;;20.64;60.31;100798.28;5352372;26;20141;-96
2023/10/06 09:14:54;;;;;;;1.17;0.43;;;;;;;20.97;60.32;100795.47;5336460;26;20079;-96
2023/10/06 09:17:36;;;;;;;0.00;0.00;;;;;;;20.91;60.31;100794.03;5340394;26;20024;-96
2023/10/06 09:20:39;;;;;;;0.57;0.57;;;;;;;20.93;60.32;100799.25;5380764;26;20012;-96
2023/10/06 09:23:07;;;;;;;0.43;0.43;;;;;;;21.04;60.33;100796.81;5378129;26;20021;-96
2023/10/06 09:26:02;;;;;;;0.30;0.30;;;;;;;21.28;60.34;100786.59;5323292;26;20029;-96
2023/10/06 09:28:48;;;;;;;0.70;0.70;;;;;;;21.53;60.35;100792.13;5376866;26;20060;-96
2023/10/06 09:31:15;;;;;;;0.47;0.47;;;;;;;21.45;60.35;100797.03;5362156;26;20077;-96
2023/10/06 09:33:59;;;;;;;0.90;0.55;;;;;;;21.41;60.35;100795.50;5318633;26;20062;-96
2023/10/06 09:36:33;;;;;;;0.80;0.70;;;;;;;21.49;60.36;100790.59;5383221;26;20020;-96
2023/10/06 09:39:14;;;;;;;0.00;0.00;;;;;;;21.87;60.38;100784.75;5364139;26;20676;-96
2023/10/06 09:41:39;;;;;;;;;;;;;;;22.04;60.39;100776.63;5343749;26;20052;-96
2023/10/06 09:44:07;;;;;;;0.75;0.75;;;;;;;22.39;60.40;100782.31;5360468;26;19983;-96
2023/10/06 09:46:34;;;;;;;0.03;0.03;;;;;;;22.05;60.39;100776.53;5329627;26;20080;-95
2023/10/06 09:48:59;;;;;;;0.00;0.00;;;;;;;22.00;60.38;100769.75;5313499;26;20074;-95
2023/10/06 09:51:25;;;;;;;0.80;0.10;;;;;;;22.35;60.40;100779.00;5313134;26;20068;-95
2023/10/06 09:53:50;;;;;;;3.15;0.55;;;;;;;22.43;60.40;100772.34;5330218;26;20063;-95
2023/10/06 09:56:17;;;;;;;2.40;0.65;;;;;;;22.32;60.39;100768.59;5311929;26;20111;-96
2023/10/06 09:58:51;;;;;;;0.93;0.93;;;;;;;22.54;60.41;100760.09;5330132;26;20063;-96
2023/10/06 10:01:31;;;;;;;0.40;0.20;;;;;;;22.76;60.42;100756.03;5331804;26;20048;-96
2023/10/06 10:03:57;;;;;;;0.00;0.00;;;;;;;23.07;60.43;100760.13;5333412;26;20067;-96
2023/10/06 10:06:22;;;;;;;0.00;0.00;;;;;;;23.09;60.44;100758.22;5313844;26;20064;-96
2023/10/06 10:08:48;;;;;;;0.35;0.35;;;;;;;23.03;60.44;100761.31;5353507;26;20072;-96
2023/10/06 10:11:17;;;;;;;0.00;0.00;;;;;;;23.02;60.43;100756.94;5300290;26;20330;-96
2023/10/06 10:13:58;;;;;;;1.20;0.30;;;;;;;23.01;60.43;100756.09;5330392;26;20022;-96
2023/10/06 10:17:07;;;;;;;0.00;0.00;;;;;;;22.97;60.44;100754.63;5352447;26;20103;-96
2023/10/06 10:19:35;;;;;;;0.00;0.00;;;;;;;23.06;60.45;100742.50;5341052;26;20032;-96
2023/10/06 10:22:28;;;;;;;0.00;0.00;;;;;;;23.16;60.44;100728.47;5299783;26;20028;-96
2023/10/06 10:24:59;;;;;;;0.00;0.00;;;;;;;23.31;60.45;100715.09;5356972;26;20027;-96
2023/10/06 10:27:24;;;;;;;1.10;0.52;;;;;;;23.49;60.46;100719.13;5318217;26;20065;-96
2023/10/06 10:30:07;;;;;;;0.17;0.13;;;;;;;23.49;60.46;100714.69;5299127;26;20112;-96
2023/10/06 10:32:42;;;;;;;0.35;0.35;;;;;;;23.48;60.46;100712.97;5341043;26;20017;-96
2023/10/06 10:35:18;;;;;;;2.35;0.70;;;;;;;23.58;60.47;100703.41;5342278;26;20020;-96
2023/10/06 10:48:06;;;;;;;0.00;0.00;;;;;;;23.87;60.48;100701.31;5342591;26;20196;-95
2023/10/06 10:51:33;;;;;;;;;;;;;;;;;;;;;
2023/10/06 10:55:00;;;;;;;;;;;;;;;;;;;;;
2023/10/06 11:26:14;;;;;;;;;;;;;;;;;;;;;
2023/10/06 11:39:23;;;;;;;0.20;0.20;;;;;;;24.84;60.54;100664.88;5106983;27;20099;-96
2023/10/06 11:41:51;;;;;;;0.35;0.35;;;;;;;24.79;60.53;100674.06;5230603;27;20033;-96
2023/10/06 11:44:19;;;;;;;0.00;0.00;;;;;;;24.85;60.55;100682.56;5273481;27;20069;-96
2023/10/06 11:46:56;;;;;;;0.00;0.00;;;;;;;24.99;60.55;100661.06;5292437;27;20075;-96
2023/10/06 11:49:23;;;;;;;0.00;0.00;;;;;;;24.86;60.55;100660.31;5308504;27;20045;-96
2023/10/06 11:51:49;;;;;;;0.20;0.20;;;;;;;24.77;60.53;100659.19;5271075;27;20081;-96
2023/10/06 11:54:15;;;;;;;0.25;0.25;;;;;;;24.79;60.53;100644.78;5268814;27;20095;-96
2023/10/06 11:56:50;;;;;;;0.13;0.13;;;;;;;24.61;60.53;100637.37;5300803;27;20779;-96
2023/10/06 11:59:23;;;;;;;0.00;0.00;;;;;;;24.78;60.54;100642.25;5284131;27;20065;-96
2023/10/06 12:01:49;;;;;;;0.90;0.32;;;;;;;24.54;60.52;100644.97;5288648;27;20473;-96
2023/10/06 12:04:34;;;;;;;0.00;0.00;;;;;;;24.83;60.53;100633.87;5305965;27;20094;-96
2023/10/06 12:07:00;;;;;;;0.00;0.00;;;;;;;24.86;60.54;100631.00;5289930;27;20084;-96
2023/10/06 12:09:29;;;;;;;0.37;0.35;;;;;;;24.82;60.53;100616.22;5288686;27;20037;-96
2023/10/06 12:11:59;;;;;;;0.20;0.13;;;;;;;24.87;60.54;100593.59;5287732;27;20107;-96
2023/10/06 12:14:28;;;;;;;1.17;1.08;;;;;;;24.77;60.54;100601.44;5286736;27;20742;-96
2023/10/06 12:16:54;;;;;;;0.00;0.00;;;;;;;24.82;60.54;100605.56;5286207;27;20056;-96
2023/10/06 12:19:22;;;;;;;0.00;0.00;;;;;;;24.65;60.52;100602.41;5286315;27;20060;-96
2023/10/06 12:21:47;;;;;;;0.03;0.03;;;;;;;24.59;60.52;100607.34;5285912;27;20080;-95
2023/10/06 12:24:13;;;;;;;0.17;0.17;;;;;;;24.36;60.52;100593.97;5285698;27;20079;-96
2023/10/06 12:26:46;;;;;;;0.00;0.00;;;;;;;24.34;60.51;100593.25;5285891;27;20064;-96
2023/10/06 12:29:16;;;;;;;0.00;0.00;;;;;;;24.44;60.53;100591.59;5287680;27;20048;-95
2023/10/06 12:31:42;;;;;;;;;;;;;;;24.62;60.53;100583.16;5287326;27;20082;-95
2023/10/06 12:34:07;;;;;;;0.00;0.00;;;;;;;24.59;60.54;100588.69;5285704;27;19976;-96
2023/10/06 12:36:35;;;;;;;3.17;0.32;;;;;;;24.37;60.52;100585.06;5286108;27;20087;-95
2023/10/06 12:39:00;;;;;;;0.05;0.05;;;;;;;24.44;60.52;100591.59;5288599;27;20048;-94
2023/10/06 12:41:26;;;;;;;0.00;0.00;;;;;;;24.39;60.52;100592.91;5288585;27;20124;-96